Time;durP1;ratioP1;P1;durP2;ratioP2;P2;SDS_P1;SDS_P2;PMS_P1;PMS_P2;Temp;Humidity;BMP_temperature;BMP_pressure;BME280_temperature;BME280_humidity;BME280_pressure;Samples;Min_cycle;Max_cycle;Signal;HPM_P1;HPM_P2
2022/01/27 00:01:28;;;;;;;51.87;28.67;;;3.80;99.90;;;;;;5084367;28;20219;-79
2022/01/27 00:04:09;;;;;;;61.77;30.50;;;3.80;99.90;;;;;;5082794;28;20221;-79
2022/01/27 00:06:37;;;;;;;60.77;31.50;;;3.80;99.90;;;;;;5079361;28;20231;-79
2022/01/27 00:09:14;;;;;;;54.57;29.53;;;3.90;99.90;;;;;;5081009;28;20218;-80
2022/01/27 00:11:44;;;;;;;59.73;30.17;;;3.90;99.90;;;;;;5084705;28;20234;-81
2022/01/27 00:14:12;;;;;;;59.27;29.57;;;3.90;99.90;;;;;;5088718;28;20242;-79
2022/01/27 00:16:42;;;;;;;57.47;29.00;;;3.90;99.90;;;;;;5087226;28;20291;-79
2022/01/27 00:19:10;;;;;;;55.07;29.37;;;3.90;99.90;;;;;;5090868;28;20226;-80
2022/01/27 00:21:37;;;;;;;52.43;28.33;;;4.00;99.90;;;;;;5093272;28;20229;-80
2022/01/27 00:24:06;;;;;;;53.73;28.63;;;3.90;99.90;;;;;;5091547;28;20234;-81
2022/01/27 00:26:33;;;;;;;53.10;27.97;;;3.90;99.90;;;;;;5086794;28;20232;-80
2022/01/27 00:29:00;;;;;;;62.87;30.03;;;4.00;99.90;;;;;;5083681;28;20226;-80
2022/01/27 00:31:27;;;;;;;54.53;28.47;;;4.00;99.90;;;;;;5087939;28;20227;-80
2022/01/27 00:33:55;;;;;;;53.17;29.47;;;4.00;99.90;;;;;;5075597;28;20695;-80
2022/01/27 00:36:22;;;;;;;50.00;27.43;;;4.00;99.90;;;;;;5086879;28;20237;-79
2022/01/27 00:38:51;;;;;;;59.03;29.53;;;4.00;99.90;;;;;;5075100;28;20770;-79
2022/01/27 00:41:21;;;;;;;55.60;30.57;;;4.00;99.90;;;;;;5086218;28;20222;-80
2022/01/27 00:43:49;;;;;;;57.73;29.93;;;4.10;99.90;;;;;;5087239;28;20230;-80
2022/01/27 00:46:17;;;;;;;52.73;28.80;;;4.10;99.90;;;;;;5085087;28;20249;-80
2022/01/27 00:48:45;;;;;;;55.50;29.80;;;4.10;99.90;;;;;;5092426;28;20229;-80
2022/01/27 00:51:15;;;;;;;60.10;31.03;;;4.10;99.90;;;;;;5089018;28;20218;-81
2022/01/27 00:53:48;;;;;;;58.33;30.30;;;4.10;99.90;;;;;;5086477;28;20586;-82
2022/01/27 00:56:23;;;;;;;55.70;30.17;;;4.10;99.90;;;;;;5084461;28;20246;-81
2022/01/27 00:59:01;;;;;;;56.87;30.83;;;4.10;99.90;;;;;;5085645;28;20229;-81
2022/01/27 01:01:33;;;;;;;54.30;30.73;;;4.10;99.90;;;;;;5091589;28;20617;-80
2022/01/27 01:04:03;;;;;;;57.40;30.27;;;4.20;99.90;;;;;;5078821;28;20229;-81
2022/01/27 01:06:41;;;;;;;56.53;31.53;;;4.20;99.90;;;;;;5091578;28;20230;-81
2022/01/27 01:12:43;;;;;;;58.17;31.77;;;4.20;99.90;;;;;;5085609;28;20268;-81
2022/01/27 01:15:10;;;;;;;59.20;31.87;;;4.20;99.90;;;;;;5096854;27;20756;-81
2022/01/27 01:17:50;;;;;;;55.40;30.73;;;4.20;99.90;;;;;;5086467;28;20222;-81
2022/01/27 01:20:31;;;;;;;59.33;31.50;;;4.20;99.90;;;;;;5090176;28;20214;-81
2022/01/27 01:31:16;;;;;;;56.80;31.43;;;4.20;99.90;;;;;;5083000;28;20225;-81
2022/01/27 01:33:45;;;;;;;52.17;30.33;;;4.10;99.90;;;;;;5084648;28;20318;-81
2022/01/27 01:36:26;;;;;;;53.40;30.53;;;4.10;99.90;;;;;;5092134;28;20223;-81
2022/01/27 01:38:53;;;;;;;57.77;32.90;;;4.10;99.90;;;;;;5085737;28;20238;-81
2022/01/27 01:41:21;;;;;;;59.33;31.87;;;4.10;99.90;;;;;;5080119;28;20231;-81
2022/01/27 01:43:48;;;;;;;51.57;30.87;;;4.10;99.90;;;;;;5078412;28;20741;-81
2022/01/27 01:46:16;;;;;;;54.83;32.17;;;4.10;99.90;;;;;;5090200;28;20328;-80
2022/01/27 01:48:43;;;;;;;53.33;31.70;;;4.10;99.90;;;;;;5087441;28;20233;-80
2022/01/27 01:51:11;;;;;;;60.93;33.30;;;4.10;99.90;;;;;;5081687;28;20706;-80
2022/01/27 01:53:38;;;;;;;58.60;33.07;;;4.00;99.90;;;;;;5083794;28;20238;-79
2022/01/27 01:56:05;;;;;;;59.67;34.17;;;4.00;99.90;;;;;;5086921;28;20231;-80
2022/01/27 01:58:32;;;;;;;62.37;35.00;;;4.00;99.90;;;;;;5084827;28;20219;-80
2022/01/27 02:00:59;;;;;;;63.70;34.33;;;4.00;99.90;;;;;;5096184;28;20231;-80
2022/01/27 02:03:27;;;;;;;62.13;34.57;;;4.00;99.90;;;;;;5085000;28;20223;-80
2022/01/27 02:05:56;;;;;;;61.33;34.20;;;4.00;99.90;;;;;;5083410;28;20229;-81
2022/01/27 02:08:38;;;;;;;61.60;34.93;;;4.00;99.90;;;;;;5079176;28;20211;-81
2022/01/27 02:19:23;;;;;;;57.07;32.77;;;4.10;99.90;;;;;;5081194;28;20240;-79
2022/01/27 02:21:53;;;;;;;54.27;32.17;;;4.10;99.90;;;;;;5089790;28;20224;-79
2022/01/27 02:24:22;;;;;;;57.80;33.33;;;4.10;99.90;;;;;;5086850;28;20227;-80
2022/01/27 02:26:50;;;;;;;56.67;32.33;;;4.10;99.90;;;;;;5087046;28;20550;-79
2022/01/27 02:29:17;;;;;;;58.37;30.03;;;4.10;99.90;;;;;;5083411;28;20231;-79
2022/01/27 02:31:45;;;;;;;53.80;30.40;;;4.10;99.90;;;;;;5078839;28;20230;-79
2022/01/27 02:34:11;;;;;;;51.97;29.40;;;4.10;99.90;;;;;;5084778;28;20224;-78
2022/01/27 02:36:38;;;;;;;57.63;30.80;;;4.10;99.90;;;;;;5085037;28;20231;-79
2022/01/27 02:39:08;;;;;;;52.93;29.73;;;4.10;99.90;;;;;;5084917;28;20275;-80
2022/01/27 02:41:46;;;;;;;48.87;28.97;;;4.10;99.90;;;;;;5095150;28;20230;-80
2022/01/27 02:44:22;;;;;;;54.07;29.03;;;4.20;99.90;;;;;;5078711;28;20225;-80
2022/01/27 02:46:51;;;;;;;51.47;28.77;;;4.20;99.90;;;;;;5092990;28;20595;-79
2022/01/27 02:49:18;;;;;;;49.87;27.97;;;4.20;99.90;;;;;;5087507;28;20491;-80
2022/01/27 02:51:45;;;;;;;47.20;27.40;;;4.20;99.90;;;;;;5092583;28;20233;-80
2022/01/27 02:54:13;;;;;;;47.50;28.03;;;4.10;99.90;;;;;;5089716;28;20324;-80
2022/01/27 02:56:45;;;;;;;49.77;27.57;;;4.20;99.90;;;;;;5085459;28;20269;-80
2022/01/27 02:59:11;;;;;;;47.70;26.93;;;4.20;99.90;;;;;;5084360;28;20412;-80
2022/01/27 03:01:38;;;;;;;47.60;27.20;;;4.20;99.90;;;;;;5085356;28;20727;-80
2022/01/27 03:04:05;;;;;;;48.77;26.23;;;4.20;99.90;;;;;;5083974;28;20355;-80
2022/01/27 03:06:32;;;;;;;47.20;26.53;;;4.20;99.90;;;;;;5087054;28;20230;-80
2022/01/27 03:08:59;;;;;;;45.97;26.17;;;4.20;99.90;;;;;;5082923;28;20226;-81
2022/01/27 03:11:39;;;;;;;46.73;26.17;;;4.20;99.90;;;;;;5088997;28;20235;-81
2022/01/27 03:14:07;;;;;;;45.97;25.60;;;4.20;99.90;;;;;;5078962;28;20309;-79
2022/01/27 03:16:35;;;;;;;47.27;25.90;;;4.30;99.90;;;;;;5088205;27;20240;-80
2022/01/27 03:19:01;;;;;;;45.70;26.27;;;4.30;99.90;;;;;;5084645;28;20795;-81
2022/01/27 03:21:29;;;;;;;45.77;25.83;;;4.30;99.90;;;;;;5079796;28;20313;-81
2022/01/27 03:23:56;;;;;;;49.10;25.37;;;4.30;99.90;;;;;;5080855;28;20238;-82
2022/01/27 03:26:24;;;;;;;46.57;26.87;;;4.30;99.90;;;;;;5085574;28;20233;-82
2022/01/27 03:28:52;;;;;;;46.00;25.27;;;4.30;99.90;;;;;;5087771;28;21170;-83
2022/01/27 03:31:19;;;;;;;46.20;26.03;;;4.30;99.90;;;;;;5083088;28;20234;-82
2022/01/27 03:33:46;;;;;;;51.93;26.97;;;4.30;99.90;;;;;;5082678;28;20747;-80
2022/01/27 03:36:13;;;;;;;46.73;26.23;;;4.30;99.90;;;;;;5086741;28;20218;-80
2022/01/27 03:38:40;;;;;;;47.73;26.47;;;4.30;99.90;;;;;;5088293;27;20226;-80
2022/01/27 03:41:08;;;;;;;44.53;26.40;;;4.30;99.90;;;;;;5084727;28;20229;-79
2022/01/27 03:43:37;;;;;;;47.23;27.17;;;4.30;99.90;;;;;;5088081;28;20253;-79
2022/01/27 03:46:07;;;;;;;48.60;24.13;;;4.30;99.90;;;;;;5081138;28;20778;-80
2022/01/27 03:48:34;;;;;;;43.90;25.93;;;4.30;99.90;;;;;;5097156;28;20222;-80
2022/01/27 03:51:01;;;;;;;49.47;25.97;;;4.30;99.90;;;;;;5077458;28;20229;-79
2022/01/27 03:53:27;;;;;;;44.77;25.87;;;4.30;99.90;;;;;;5082835;28;20226;-80
2022/01/27 03:55:54;;;;;;;46.47;25.13;;;4.30;99.90;;;;;;5085077;28;20223;-80
2022/01/27 03:58:21;;;;;;;44.90;25.90;;;4.30;99.90;;;;;;5090461;28;20236;-79
2022/01/27 04:00:47;;;;;;;48.73;26.30;;;4.30;99.90;;;;;;5082368;28;20237;-79
2022/01/27 04:03:18;;;;;;;47.17;26.47;;;4.30;99.90;;;;;;5081296;28;20250;-79
2022/01/27 04:05:51;;;;;;;42.70;25.00;;;4.30;99.90;;;;;;5083636;28;20220;-79
2022/01/27 04:08:18;;;;;;;48.10;27.43;;;4.30;99.90;;;;;;5088982;28;20867;-79
2022/01/27 04:10:45;;;;;;;46.77;26.70;;;4.20;99.90;;;;;;5082613;28;20249;-79
2022/01/27 04:13:12;;;;;;;48.80;27.93;;;4.20;99.90;;;;;;5088506;28;20230;-79
2022/01/27 04:15:42;;;;;;;51.27;27.23;;;4.20;99.90;;;;;;5085508;28;20630;-79
2022/01/27 04:18:09;;;;;;;47.03;25.43;;;4.10;99.90;;;;;;5095199;28;20630;-78
2022/01/27 04:20:37;;;;;;;46.93;27.47;;;4.10;99.90;;;;;;5085086;28;20722;-79
2022/01/27 04:23:04;;;;;;;46.80;27.03;;;4.10;99.90;;;;;;5092140;28;20223;-78
2022/01/27 04:25:31;;;;;;;46.03;26.43;;;4.10;99.90;;;;;;5087409;28;20812;-79
2022/01/27 04:28:03;;;;;;;49.10;27.77;;;4.10;99.90;;;;;;5087178;28;20229;-79
2022/01/27 04:30:30;;;;;;;47.30;26.23;;;4.10;99.90;;;;;;5082798;28;20690;-79
2022/01/27 04:32:59;;;;;;;49.80;28.23;;;4.10;99.90;;;;;;5086213;28;20218;-80
2022/01/27 04:35:28;;;;;;;45.17;26.07;;;4.10;99.90;;;;;;5075133;28;20303;-79
2022/01/27 04:38:08;;;;;;;47.37;25.80;;;4.10;99.90;;;;;;5085555;28;20223;-79
2022/01/27 04:40:41;;;;;;;48.13;26.23;;;4.10;99.90;;;;;;5079613;28;20333;-79
2022/01/27 04:43:16;;;;;;;42.70;25.60;;;4.10;99.90;;;;;;5086553;28;20219;-80
2022/01/27 04:45:50;;;;;;;41.13;25.13;;;4.10;99.90;;;;;;5079284;28;20226;-79
2022/01/27 04:48:20;;;;;;;42.07;24.70;;;4.10;99.90;;;;;;5094290;28;20223;-79
2022/01/27 04:50:47;;;;;;;43.33;25.67;;;4.00;99.90;;;;;;5084362;28;20223;-80
2022/01/27 04:53:21;;;;;;;41.93;24.80;;;4.10;99.90;;;;;;5083234;28;20250;-81
2022/01/27 04:55:48;;;;;;;45.00;25.47;;;4.00;99.90;;;;;;5086623;28;20227;-80
2022/01/27 04:58:18;;;;;;;40.33;25.10;;;4.00;99.90;;;;;;5077179;28;20229;-80
2022/01/27 05:00:46;;;;;;;39.13;24.27;;;4.00;99.90;;;;;;5097812;28;20234;-81
2022/01/27 05:03:18;;;;;;;41.37;24.00;;;4.00;99.90;;;;;;5083270;28;20234;-80
2022/01/27 05:05:45;;;;;;;41.53;25.27;;;4.00;99.90;;;;;;5080465;28;20227;-80
2022/01/27 05:08:17;;;;;;;38.00;24.60;;;4.00;99.90;;;;;;5078516;28;20230;-81
2022/01/27 05:10:55;;;;;;;39.30;23.23;;;4.00;99.90;;;;;;5086066;28;20227;-80
2022/01/27 05:13:24;;;;;;;38.47;22.63;;;4.00;99.90;;;;;;5077724;28;20258;-81
2022/01/27 05:15:51;;;;;;;42.97;23.87;;;4.00;99.90;;;;;;5082941;28;20218;-84
2022/01/27 05:18:17;;;;;;;40.63;24.07;;;4.00;99.90;;;;;;5081334;28;20219;-80
2022/01/27 05:20:45;;;;;;;36.77;21.80;;;3.90;99.90;;;;;;5084657;28;20255;-80
2022/01/27 05:23:12;;;;;;;68.23;25.67;;;3.90;99.90;;;;;;5084636;28;20233;-83
2022/01/27 05:25:39;;;;;;;61.80;25.30;;;3.90;99.90;;;;;;5089152;28;20245;-81
2022/01/27 05:28:07;;;;;;;55.27;23.07;;;4.00;99.90;;;;;;5088416;28;20894;-83
2022/01/27 05:30:35;;;;;;;36.90;22.53;;;3.90;99.90;;;;;;5083627;28;20317;-81
2022/01/27 05:33:01;;;;;;;48.40;23.63;;;3.90;99.90;;;;;;5084591;28;20222;-82
2022/01/27 05:35:28;;;;;;;50.67;24.90;;;3.80;99.90;;;;;;5085936;28;20230;-81
2022/01/27 05:37:55;;;;;;;44.40;24.03;;;3.90;99.90;;;;;;5084645;28;20874;-80
2022/01/27 05:40:22;;;;;;;52.63;25.33;;;3.90;99.90;;;;;;5079832;27;20225;-80
2022/01/27 05:42:49;;;;;;;41.03;23.87;;;3.90;99.90;;;;;;5085818;28;20227;-80
2022/01/27 05:45:17;;;;;;;40.90;22.63;;;3.80;99.90;;;;;;5083374;28;20280;-80
2022/01/27 05:47:44;;;;;;;35.17;22.17;;;3.80;99.90;;;;;;5079982;28;20631;-80
2022/01/27 05:50:11;;;;;;;46.70;22.80;;;3.80;99.90;;;;;;5087960;28;20585;-80
2022/01/27 05:52:39;;;;;;;39.67;21.80;;;3.80;99.90;;;;;;5088518;28;20968;-80
2022/01/27 05:55:06;;;;;;;42.67;22.53;;;3.80;99.90;;;;;;5079654;28;20230;-80
2022/01/27 05:57:33;;;;;;;41.40;21.90;;;3.80;99.90;;;;;;5077261;28;20259;-81
2022/01/27 06:00:00;;;;;;;30.90;20.10;;;3.80;99.90;;;;;;5076132;28;20226;-82
2022/01/27 06:02:28;;;;;;;33.27;21.33;;;3.80;99.90;;;;;;5069897;28;20260;-82
2022/01/27 06:04:55;;;;;;;32.90;20.63;;;3.80;99.90;;;;;;5081475;28;20271;-81
2022/01/27 06:07:21;;;;;;;35.23;20.90;;;3.80;99.90;;;;;;5074646;28;20333;-80
2022/01/27 06:09:48;;;;;;;32.60;20.80;;;3.80;99.90;;;;;;5081284;28;20303;-80
2022/01/27 06:12:15;;;;;;;32.13;20.33;;;3.80;99.90;;;;;;5079695;28;20250;-80
2022/01/27 06:14:41;;;;;;;38.77;21.00;;;3.80;99.90;;;;;;5073469;28;20656;-80
2022/01/27 06:17:08;;;;;;;33.70;21.33;;;3.80;99.90;;;;;;5078788;28;20223;-80
2022/01/27 06:19:36;;;;;;;33.50;20.07;;;3.80;99.90;;;;;;5081478;27;20233;-80
2022/01/27 06:22:11;;;;;;;31.00;19.83;;;3.80;99.90;;;;;;5083565;28;20222;-81
2022/01/27 06:24:38;;;;;;;31.30;19.57;;;3.80;99.90;;;;;;5084274;28;20230;-80
2022/01/27 06:27:05;;;;;;;33.47;20.07;;;3.80;99.90;;;;;;5085893;28;20793;-82
2022/01/27 06:29:32;;;;;;;31.30;19.40;;;3.80;99.90;;;;;;5085936;28;20238;-80
2022/01/27 06:32:02;;;;;;;34.80;19.83;;;3.80;99.90;;;;;;5082918;28;20250;-84
2022/01/27 06:34:29;;;;;;;27.00;18.07;;;3.90;99.90;;;;;;5082578;28;20226;-82
2022/01/27 06:36:58;;;;;;;29.80;18.83;;;3.90;99.90;;;;;;5083483;28;20222;-82
2022/01/27 06:39:25;;;;;;;30.87;19.80;;;3.90;99.90;;;;;;5079932;28;20230;-83
2022/01/27 06:41:52;;;;;;;29.00;18.60;;;3.90;99.90;;;;;;5083530;28;20701;-83
2022/01/27 06:44:18;;;;;;;31.33;19.20;;;3.90;99.90;;;;;;5078303;28;20237;-80
2022/01/27 06:46:45;;;;;;;33.57;20.53;;;3.90;99.90;;;;;;5082344;28;20238;-81
2022/01/27 06:49:16;;;;;;;30.30;19.10;;;3.90;99.90;;;;;;5075622;28;20314;-80
2022/01/27 06:51:43;;;;;;;30.17;18.87;;;3.90;99.90;;;;;;5084364;28;20230;-80
2022/01/27 06:54:12;;;;;;;29.67;18.53;;;3.90;99.90;;;;;;5082700;28;20237;-81
2022/01/27 06:56:38;;;;;;;26.30;17.43;;;3.90;99.90;;;;;;5088627;27;21019;-80
2022/01/27 06:59:05;;;;;;;30.53;18.40;;;3.90;99.90;;;;;;5078016;28;20606;-81
2022/01/27 07:01:32;;;;;;;29.20;19.03;;;3.90;99.90;;;;;;5081153;28;20231;-81
2022/01/27 07:03:58;;;;;;;30.33;18.50;;;3.90;99.90;;;;;;5079888;28;20663;-80
2022/01/27 07:06:25;;;;;;;28.20;17.50;;;3.90;99.90;;;;;;5079320;28;20235;-80
2022/01/27 07:08:52;;;;;;;29.97;18.37;;;3.90;99.90;;;;;;5077895;28;20322;-80
2022/01/27 07:11:20;;;;;;;27.33;17.30;;;3.90;99.90;;;;;;5081939;28;20246;-81
2022/01/27 07:13:47;;;;;;;27.10;18.13;;;3.90;99.90;;;;;;5076914;28;20679;-81
2022/01/27 07:16:14;;;;;;;30.03;18.73;;;3.90;99.90;;;;;;5079829;28;20309;-80
2022/01/27 07:18:40;;;;;;;26.33;18.07;;;3.90;99.90;;;;;;5082447;28;20240;-80
2022/01/27 07:21:07;;;;;;;26.70;17.70;;;3.90;99.90;;;;;;5080991;28;20223;-80
2022/01/27 07:23:34;;;;;;;22.87;16.57;;;3.90;99.90;;;;;;5079509;28;20237;-80
2022/01/27 07:26:01;;;;;;;27.40;16.90;;;4.00;99.90;;;;;;5073660;28;20237;-80
2022/01/27 07:28:30;;;;;;;24.47;15.70;;;4.00;99.90;;;;;;5082796;28;20234;-80
2022/01/27 07:30:57;;;;;;;26.13;17.20;;;4.00;99.90;;;;;;5072619;28;20294;-80
2022/01/27 07:33:24;;;;;;;24.60;17.10;;;4.00;99.90;;;;;;5073128;28;20738;-79
2022/01/27 07:35:50;;;;;;;27.00;17.93;;;4.00;99.90;;;;;;5086017;28;20313;-79
2022/01/27 07:38:17;;;;;;;24.87;17.57;;;4.00;99.90;;;;;;5077757;28;20219;-80
2022/01/27 07:40:44;;;;;;;22.93;15.83;;;4.00;99.90;;;;;;5077110;28;20223;-80
2022/01/27 07:43:11;;;;;;;22.80;15.53;;;4.00;99.90;;;;;;5076997;28;20781;-80
2022/01/27 07:45:40;;;;;;;22.73;15.07;;;4.00;99.90;;;;;;5077658;28;20269;-80
2022/01/27 07:48:07;;;;;;;22.17;13.73;;;4.10;99.90;;;;;;5078632;28;20226;-80
2022/01/27 07:50:34;;;;;;;21.87;14.67;;;4.10;99.90;;;;;;5076953;28;20223;-80
2022/01/27 07:53:01;;;;;;;23.23;15.30;;;4.10;99.90;;;;;;5075283;28;20257;-80
2022/01/27 07:55:28;;;;;;;22.47;15.77;;;4.10;99.90;;;;;;5076964;28;20223;-80
2022/01/27 07:57:55;;;;;;;21.17;15.37;;;4.10;99.90;;;;;;5079173;28;20226;-79
2022/01/27 08:00:22;;;;;;;24.20;15.03;;;4.10;99.90;;;;;;5082362;28;20722;-80
2022/01/27 08:02:50;;;;;;;22.67;15.10;;;4.10;99.90;;;;;;5080142;28;20230;-79
2022/01/27 08:05:17;;;;;;;19.77;14.70;;;4.10;99.90;;;;;;5079237;28;20222;-80
2022/01/27 08:07:44;;;;;;;22.10;14.93;;;4.10;99.90;;;;;;5072119;28;20271;-79
2022/01/27 08:10:10;;;;;;;24.13;15.23;;;4.20;99.90;;;;;;5074763;28;20907;-80
2022/01/27 08:12:41;;;;;;;23.53;14.87;;;4.20;99.90;;;;;;5072488;28;20320;-80
2022/01/27 08:15:11;;;;;;;23.00;14.80;;;4.20;99.90;;;;;;5076620;28;20327;-80
2022/01/27 08:17:38;;;;;;;21.80;15.70;;;4.20;99.90;;;;;;5077487;28;20769;-79
2022/01/27 08:20:07;;;;;;;20.50;14.30;;;4.20;99.90;;;;;;5084056;28;20230;-80
2022/01/27 08:22:37;;;;;;;23.53;14.87;;;4.20;99.90;;;;;;5083569;28;20814;-79
2022/01/27 08:25:05;;;;;;;23.30;15.03;;;4.20;99.90;;;;;;5074921;28;20222;-80
2022/01/27 08:27:32;;;;;;;17.47;12.43;;;4.20;99.90;;;;;;5074286;28;20700;-80
2022/01/27 08:30:02;;;;;;;18.67;12.63;;;4.30;99.90;;;;;;5072737;28;20576;-80
2022/01/27 08:32:43;;;;;;;19.13;12.57;;;4.30;99.90;;;;;;5082331;28;20587;-80
2022/01/27 08:35:12;;;;;;;18.43;12.97;;;4.30;99.90;;;;;;5072094;28;20218;-79
2022/01/27 08:37:38;;;;;;;17.93;12.60;;;4.30;99.90;;;;;;5078594;28;20227;-77
2022/01/27 08:40:06;;;;;;;18.70;11.50;;;4.30;99.90;;;;;;5076393;28;20282;-78
2022/01/27 08:42:33;;;;;;;18.87;12.53;;;4.30;99.90;;;;;;5081024;28;20313;-78
2022/01/27 08:45:00;;;;;;;18.13;11.93;;;4.30;99.90;;;;;;5077724;28;20235;-78
2022/01/27 08:47:27;;;;;;;17.83;12.50;;;4.30;99.90;;;;;;5078113;28;20341;-78
2022/01/27 08:49:54;;;;;;;16.90;12.17;;;4.40;99.90;;;;;;5078584;28;20225;-78
2022/01/27 08:52:22;;;;;;;14.60;10.73;;;4.40;99.90;;;;;;5077674;28;20694;-77
2022/01/27 08:54:49;;;;;;;18.10;10.87;;;4.40;99.90;;;;;;5074328;28;20234;-78
2022/01/27 08:57:16;;;;;;;16.80;10.80;;;4.40;99.90;;;;;;5080711;28;20278;-78
2022/01/27 08:59:43;;;;;;;18.83;11.03;;;4.40;99.90;;;;;;5077710;28;20246;-78
2022/01/27 09:02:10;;;;;;;14.97;10.27;;;4.40;99.90;;;;;;5079855;28;20211;-78
2022/01/27 09:04:36;;;;;;;15.33;10.53;;;4.50;99.90;;;;;;5081392;28;20231;-78
2022/01/27 09:07:04;;;;;;;14.73;10.10;;;4.50;99.90;;;;;;5080868;28;20895;-78
2022/01/27 09:09:32;;;;;;;15.60;10.97;;;4.50;99.90;;;;;;5078720;28;20238;-78
2022/01/27 09:12:00;;;;;;;16.23;10.77;;;4.50;99.90;;;;;;5076026;28;20220;-78
2022/01/27 09:14:29;;;;;;;14.77;10.27;;;4.50;99.90;;;;;;5093397;28;20271;-78
2022/01/27 09:16:56;;;;;;;14.77;10.40;;;4.50;99.90;;;;;;5091152;28;20230;-78
2022/01/27 09:19:25;;;;;;;15.30;9.87;;;4.60;99.90;;;;;;5080572;28;20288;-78
2022/01/27 09:21:53;;;;;;;14.67;10.50;;;4.60;99.90;;;;;;5087679;28;21847;-78
2022/01/27 09:24:27;;;;;;;14.47;10.17;;;4.60;99.90;;;;;;5080340;28;20310;-78
2022/01/27 09:27:00;;;;;;;16.33;10.90;;;4.60;99.90;;;;;;5082834;28;20307;-78
2022/01/27 09:29:29;;;;;;;12.20;9.80;;;4.60;99.90;;;;;;5083117;28;20218;-78
2022/01/27 09:31:56;;;;;;;13.90;9.60;;;4.70;99.90;;;;;;5086853;28;20224;-78
2022/01/27 09:34:23;;;;;;;13.27;9.50;;;4.70;99.90;;;;;;5072272;28;20223;-78
2022/01/27 09:36:50;;;;;;;11.77;9.23;;;4.70;99.90;;;;;;5082566;28;20219;-78
2022/01/27 09:39:18;;;;;;;12.30;8.57;;;4.70;99.90;;;;;;5088157;28;20223;-78
2022/01/27 09:41:47;;;;;;;12.97;8.20;;;4.80;99.90;;;;;;5084618;28;20236;-77
2022/01/27 09:44:15;;;;;;;10.93;8.03;;;4.80;99.90;;;;;;5076814;28;20207;-78
2022/01/27 09:46:45;;;;;;;11.57;7.90;;;4.80;99.90;;;;;;5078485;28;20245;-78
2022/01/27 09:49:16;;;;;;;10.53;7.80;;;4.80;99.90;;;;;;5078043;28;20230;-78
2022/01/27 09:51:45;;;;;;;11.23;7.73;;;4.90;99.90;;;;;;5076733;28;20554;-78
2022/01/27 09:54:13;;;;;;;11.10;7.53;;;5.00;99.90;;;;;;5077478;28;20306;-78
2022/01/27 09:56:41;;;;;;;9.10;7.07;;;4.90;99.90;;;;;;5075005;28;20235;-77
2022/01/27 09:59:09;;;;;;;10.07;6.67;;;5.00;99.90;;;;;;5080400;28;20311;-77
2022/01/27 10:01:38;;;;;;;9.23;6.60;;;5.00;99.90;;;;;;5081574;28;20228;-77
2022/01/27 10:04:07;;;;;;;8.67;6.10;;;5.00;99.90;;;;;;5080442;28;20234;-78
2022/01/27 10:06:35;;;;;;;9.20;6.20;;;5.00;99.90;;;;;;5070291;28;20297;-78
2022/01/27 10:09:19;;;;;;;9.93;6.30;;;5.00;99.90;;;;;;5077358;28;20772;-78
2022/01/27 10:11:48;;;;;;;8.60;6.30;;;5.10;99.90;;;;;;5096145;28;21321;-78
2022/01/27 10:14:19;;;;;;;8.73;5.87;;;5.10;99.90;;;;;;5079667;28;20330;-78
2022/01/27 10:16:50;;;;;;;9.90;6.47;;;5.10;99.90;;;;;;5077198;28;20234;-78
2022/01/27 10:19:18;;;;;;;10.07;6.13;;;5.10;99.90;;;;;;5071000;28;20231;-78
2022/01/27 10:21:46;;;;;;;9.07;5.90;;;5.20;99.90;;;;;;5086125;28;20302;-78
2022/01/27 10:24:19;;;;;;;9.53;5.97;;;5.20;99.90;;;;;;5081855;28;20218;-78
2022/01/27 10:26:53;;;;;;;7.30;5.67;;;5.20;99.90;;;;;;5074360;28;20782;-78
2022/01/27 10:29:33;;;;;;;7.87;6.03;;;5.20;99.90;;;;;;5081929;28;20219;-78
2022/01/27 10:32:07;;;;;;;10.13;6.33;;;5.20;99.90;;;;;;5079257;28;20269;-77
2022/01/27 10:34:54;;;;;;;10.27;6.40;;;5.30;99.90;;;;;;5078411;28;20231;-77
2022/01/27 10:37:21;;;;;;;11.77;6.47;;;5.30;99.90;;;;;;5076447;28;20312;-77
2022/01/27 10:39:49;;;;;;;9.53;6.80;;;5.30;99.90;;;;;;5078577;28;20234;-77
2022/01/27 10:42:20;;;;;;;10.50;6.83;;;5.40;99.90;;;;;;5077197;28;20606;-77
2022/01/27 10:44:53;;;;;;;10.40;7.20;;;5.40;99.90;;;;;;5077049;28;20936;-77
2022/01/27 10:47:28;;;;;;;11.83;7.03;;;5.40;99.90;;;;;;5071953;28;20308;-78
2022/01/27 10:49:58;;;;;;;11.53;6.30;;;5.50;99.90;;;;;;5074873;28;20868;-78
2022/01/27 10:52:35;;;;;;;12.13;6.43;;;5.50;99.90;;;;;;5080935;28;20748;-78
2022/01/27 10:55:08;;;;;;;9.40;6.90;;;5.60;99.90;;;;;;5079056;28;20248;-77
2022/01/27 10:57:35;;;;;;;11.90;6.77;;;5.60;99.90;;;;;;5081141;28;20231;-77
2022/01/27 11:00:09;;;;;;;12.00;6.83;;;5.60;99.90;;;;;;5079497;28;20228;-77
2022/01/27 11:02:50;;;;;;;15.37;6.67;;;5.70;99.90;;;;;;5077746;28;20232;-77
2022/01/27 11:05:18;;;;;;;11.67;7.30;;;5.80;99.90;;;;;;5080399;28;20217;-77
2022/01/27 11:07:46;;;;;;;16.70;7.37;;;5.80;99.90;;;;;;5080659;28;20319;-78
2022/01/27 11:10:15;;;;;;;12.67;6.47;;;5.90;99.90;;;;;;5078815;28;20235;-77
2022/01/27 11:12:43;;;;;;;14.37;7.03;;;6.00;99.90;;;;;;5080559;28;20729;-78
2022/01/27 11:15:11;;;;;;;17.23;7.40;;;6.00;99.90;;;;;;5067384;28;20229;-78
2022/01/27 11:17:39;;;;;;;17.97;7.57;;;6.10;99.90;;;;;;5073866;28;20259;-78
2022/01/27 11:20:24;;;;;;;18.03;7.67;;;6.20;99.90;;;;;;5077295;28;20658;-78
2022/01/27 11:23:22;;;;;;;18.30;6.53;;;6.30;99.90;;;;;;5083969;28;20256;-78
2022/01/27 11:25:52;;;;;;;16.00;6.87;;;6.30;99.90;;;;;;5075347;28;21115;-79
2022/01/27 11:28:20;;;;;;;16.17;6.73;;;6.40;99.90;;;;;;5079966;28;21044;-78
2022/01/27 11:30:58;;;;;;;19.70;7.07;;;6.50;99.90;;;;;;5086986;28;20228;-78
2022/01/27 11:33:31;;;;;;;22.97;7.23;;;6.50;99.90;;;;;;5074177;28;20303;-78
2022/01/27 11:36:10;;;;;;;16.30;6.50;;;6.60;99.90;;;;;;5083056;28;20287;-78
2022/01/27 11:38:39;;;;;;;19.40;6.73;;;6.70;99.90;;;;;;5069367;28;20788;-78
2022/01/27 11:41:06;;;;;;;24.47;7.57;;;6.70;99.90;;;;;;5083910;28;20585;-78
2022/01/27 11:43:34;;;;;;;20.63;6.40;;;6.80;99.90;;;;;;5077372;28;20871;-78
2022/01/27 11:46:14;;;;;;;25.23;6.37;;;6.80;99.90;;;;;;5082290;28;20240;-77
2022/01/27 11:48:41;;;;;;;24.40;5.87;;;6.80;99.90;;;;;;5073394;28;20599;-78
2022/01/27 11:51:13;;;;;;;28.53;6.47;;;6.90;99.90;;;;;;5080730;28;20248;-78
2022/01/27 11:53:42;;;;;;;27.03;5.87;;;6.90;99.90;;;;;;5078707;28;20225;-78
2022/01/27 11:56:15;;;;;;;21.97;5.80;;;7.00;99.90;;;;;;5078382;28;20374;-78
2022/01/27 11:58:47;;;;;;;23.53;5.97;;;7.10;99.90;;;;;;5079564;28;20230;-78
2022/01/27 12:01:21;;;;;;;22.50;5.23;;;7.10;99.90;;;;;;5083492;28;20230;-78
2022/01/27 12:04:12;;;;;;;21.17;5.40;;;7.20;99.90;;;;;;5079194;28;20247;-78
2022/01/27 12:06:41;;;;;;;24.13;5.47;;;7.40;99.90;;;;;;5080662;28;20259;-78
2022/01/27 12:09:27;;;;;;;21.57;5.20;;;7.60;99.90;;;;;;5087389;28;20778;-78
2022/01/27 12:11:56;;;;;;;17.83;4.43;;;7.80;99.90;;;;;;5082984;28;20229;-78
2022/01/27 12:14:27;;;;;;;23.13;5.03;;;7.90;99.90;;;;;;5076765;28;20248;-78
2022/01/27 12:17:23;;;;;;;19.60;4.57;;;8.10;99.90;;;;;;5085179;28;20218;-78
2022/01/27 12:19:51;;;;;;;20.67;4.80;;;8.20;99.90;;;;;;5080690;28;20877;-78
2022/01/27 12:22:22;;;;;;;21.03;5.47;;;8.30;99.90;;;;;;5082686;28;20223;-78
2022/01/27 12:24:54;;;;;;;20.70;5.10;;;8.40;99.90;;;;;;5079973;28;20230;-78
2022/01/27 12:27:21;;;;;;;18.93;4.63;;;8.50;99.90;;;;;;5080466;28;20328;-78
2022/01/27 12:29:50;;;;;;;18.23;4.33;;;8.50;99.90;;;;;;5082233;28;21208;-78
2022/01/27 12:32:22;;;;;;;20.33;4.87;;;8.60;99.90;;;;;;5078459;28;20346;-78
2022/01/27 12:34:50;;;;;;;26.50;4.50;;;8.60;99.90;;;;;;5080287;28;20342;-78
2022/01/27 12:37:20;;;;;;;15.00;3.90;;;8.60;99.90;;;;;;5084895;28;20230;-79
2022/01/27 12:39:53;;;;;;;16.13;3.83;;;8.60;99.90;;;;;;5089896;28;20330;-78
2022/01/27 12:42:23;;;;;;;15.20;4.30;;;8.50;99.90;;;;;;5082372;28;20310;-78
2022/01/27 12:44:58;;;;;;;19.83;4.63;;;8.50;99.90;;;;;;5085917;28;20232;-79
2022/01/27 12:47:25;;;;;;;16.20;4.20;;;8.50;99.90;;;;;;5082347;28;20231;-78
2022/01/27 12:50:02;;;;;;;18.93;4.50;;;8.40;99.90;;;;;;5085331;28;20228;-78
2022/01/27 12:52:31;;;;;;;22.83;4.70;;;8.40;99.90;;;;;;5085817;28;20243;-78
2022/01/27 12:54:59;;;;;;;19.40;4.23;;;8.30;99.90;;;;;;5086009;28;20720;-78
2022/01/27 12:57:28;;;;;;;20.67;5.43;;;8.30;99.90;;;;;;5078103;28;20288;-78
2022/01/27 12:59:57;;;;;;;19.07;4.47;;;8.20;99.90;;;;;;5077167;28;20230;-78
2022/01/27 13:02:26;;;;;;;20.77;4.50;;;8.20;99.90;;;;;;5080559;28;20242;-78
2022/01/27 13:04:55;;;;;;;15.23;4.70;;;8.20;99.90;;;;;;5082658;28;20250;-78
2022/01/27 13:07:22;;;;;;;21.20;4.87;;;8.30;99.90;;;;;;5087201;28;20234;-78
2022/01/27 13:09:57;;;;;;;17.93;4.40;;;8.30;99.90;;;;;;5085993;28;20232;-78
2022/01/27 13:12:30;;;;;;;14.70;4.20;;;8.40;99.90;;;;;;5081008;28;20314;-78